Time;durP1;ratioP1;P1;durP2;ratioP2;P2;SDS_P1;SDS_P2;PMS_P1;PMS_P2;Temp;Humidity;BMP_temperature;BMP_pressure;BME280_temperature;BME280_humidity;BME280_pressure;Samples;Min_cycle;Max_cycle;Signal;HPM_P1;HPM_P2
2023/07/27 00:02:25;;;;;;;;;;;;;;;27.29;32.01;97709.53;5093707;28;20448;-84
2023/07/27 00:04:51;;;;;;;;;;;;;;;26.94;32.64;97715.78;5093860;28;20057;-84
2023/07/27 00:07:18;;;;;;;;;;;;;;;26.65;33.26;97713.28;5093630;28;19916;-84
2023/07/27 00:09:44;;;;;;;;;;;;;;;26.50;33.79;97698.94;5093467;28;19920;-85
2023/07/27 00:12:10;;;;;;;;;;;;;;;27.04;32.61;97703.34;5093577;28;20483;-84
2023/07/27 00:14:36;;;;;;;;;;;;;;;27.11;32.50;97712.28;5093700;28;19924;-84
2023/07/27 00:17:02;;;;;;;;;;;;;;;26.90;32.78;97707.50;5094171;28;19937;-84
2023/07/27 00:19:28;;;;;;;;;;;;;;;26.91;32.96;97711.88;5093530;28;19920;-84
2023/07/27 00:21:54;;;;;;;;;;;;;;;27.12;32.65;97715.91;5093444;28;20408;-84
2023/07/27 00:24:20;;;;;;;;;;;;;;;27.23;32.54;97717.03;5093108;28;19924;-85
2023/07/27 00:26:46;;;;;;;;;;;;;;;27.28;32.34;97719.22;5093469;28;19924;-84
2023/07/27 00:29:12;;;;;;;;;;;;;;;27.38;32.38;97714.44;5093357;28;19921;-85
2023/07/27 00:31:38;;;;;;;;;;;;;;;27.51;31.96;97728.44;5093366;28;19917;-85
2023/07/27 00:34:04;;;;;;;;;;;;;;;27.47;31.97;97717.28;5093812;28;20305;-85
2023/07/27 00:36:30;;;;;;;;;;;;;;;27.46;32.17;97717.75;5093282;28;20446;-84
2023/07/27 00:38:56;;;;;;;;;;;;;;;27.24;32.52;97726.25;5091796;28;19920;-85
2023/07/27 00:41:22;;;;;;;;;;;;;;;27.51;31.87;97729.22;5093662;28;19920;-85
2023/07/27 00:43:48;;;;;;;;;;;;;;;27.43;32.08;97727.94;5096966;28;19915;-85
2023/07/27 00:46:14;;;;;;;;;;;;;;;27.45;32.12;97727.44;5097167;28;19963;-85
2023/07/27 00:48:40;;;;;;;;;;;;;;;27.40;32.32;97729.63;5097292;28;19916;-84
2023/07/27 00:51:07;;;;;;;;;;;;;;;27.52;32.20;97719.50;5097418;28;19916;-85
2023/07/27 00:53:33;;;;;;;;;;;;;;;27.52;32.25;97725.13;5096516;28;19927;-85
2023/07/27 00:56:00;;;;;;;;;;;;;;;27.38;32.32;97732.16;5097004;28;19916;-85
2023/07/27 00:58:26;;;;;;;;;;;;;;;27.33;32.72;97729.09;5095501;28;20304;-85
2023/07/27 01:00:52;;;;;;;;;;;;;;;27.30;32.33;97728.03;5097134;28;19916;-85
2023/07/27 01:03:18;;;;;;;;;;;;;;;27.35;32.28;97726.63;5096754;28;19916;-85
2023/07/27 01:05:45;;;;;;;;;;;;;;;27.14;32.84;97735.94;5097330;28;19955;-84
2023/07/27 01:08:11;;;;;;;;;;;;;;;26.92;32.96;97743.66;5096507;28;20419;-85
2023/07/27 01:10:45;;;;;;;;;;;;;;;26.93;32.97;97739.59;5096614;28;19963;-84
2023/07/27 01:13:34;;;;;;;;;;;;;;;26.73;33.69;97735.06;5096739;28;20026;-85
2023/07/27 01:16:04;;;;;;;;;;;;;;;26.42;33.69;97739.88;5086335;28;19912;-84
2023/07/27 01:18:36;;;;;;;;;;;;;;;26.90;32.84;97741.31;5096547;28;20373;-84
2023/07/27 01:21:10;;;;;;;;;;;;;;;26.96;32.87;97736.63;5096440;28;20009;-85
2023/07/27 01:23:51;;;;;;;;;;;;;;;26.78;33.13;97744.19;5097105;28;19967;-85
2023/07/27 01:26:17;;;;;;;;;;;;;;;26.91;32.95;97744.91;5096489;28;19938;-85
2023/07/27 01:28:47;;;;;;;;;;;;;;;26.71;33.31;97742.41;5096307;28;20436;-84
2023/07/27 01:31:17;;;;;;;;;;;;;;;26.53;33.87;97740.28;5096200;28;20296;-84
2023/07/27 01:33:46;;;;;;;;;;;;;;;27.15;32.30;97738.28;5096275;28;20011;-85
2023/07/27 01:36:23;;;;;;;;;;;;;;;27.04;32.67;97745.59;5096165;28;20003;-84
2023/07/27 01:38:50;;;;;;;;;;;;;;;27.00;32.21;97750.59;5096302;28;19916;-84
2023/07/27 01:41:17;;;;;;;;;;;;;;;26.70;32.97;97750.06;5096746;28;19920;-85
2023/07/27 01:43:43;;;;;;;;;;;;;;;26.67;33.13;97761.47;5110140;28;19919;-85
2023/07/27 01:46:10;;;;;;;;;;;;;;;26.84;33.06;97759.28;5105195;28;19927;-85
2023/07/27 01:48:38;;;;;;;;;;;;;;;26.81;32.88;97757.38;5107488;28;20288;-85
2023/07/27 01:51:04;;;;;;;;;;;;;;;26.77;32.95;97763.13;5116034;28;19923;-84
2023/07/27 01:53:31;;;;;;;;;;;;;;;26.76;32.95;97757.97;5095159;28;20007;-85
2023/07/27 01:55:59;;;;;;;;;;;;;;;26.68;32.57;97755.38;5095707;28;19916;-85
2023/07/27 01:58:26;;;;;;;;;;;;;;;26.39;33.89;97760.50;5096211;28;20324;-85
2023/07/27 02:00:52;;;;;;;;;;;;;;;26.36;33.13;97758.59;5095646;28;20399;-84
2023/07/27 02:03:18;;;;;;;;;;;;;;;26.46;32.71;97756.63;5095416;28;19960;-84
2023/07/27 02:05:44;;;;;;;;;;;;;;;26.07;33.35;97769.25;5095487;28;19997;-84
2023/07/27 02:08:10;;;;;;;;;;;;;;;26.25;33.20;97766.66;5111262;28;19952;-84
2023/07/27 02:10:39;;;;;;;;;;;;;;;26.10;32.93;97768.38;5095667;28;19916;-84
2023/07/27 02:13:20;;;;;;;;;;;;;;;26.13;33.18;97770.28;5095496;28;19916;-84
2023/07/27 02:15:52;;;;;;;;;;;;;;;26.16;33.26;97760.94;5095989;28;19919;-85
2023/07/27 02:18:21;;;;;;;;;;;;;;;25.93;33.21;97770.53;5095427;28;19924;-84
2023/07/27 02:20:48;;;;;;;;;;;;;;;26.04;32.85;97767.38;5095049;28;19942;-84
2023/07/27 02:23:15;;;;;;;;;;;;;;;25.78;33.50;97775.09;5095089;28;19946;-84
2023/07/27 02:25:41;;;;;;;;;;;;;;;25.70;33.39;97770.13;5095286;28;19955;-84
2023/07/27 02:28:13;;;;;;;;;;;;;;;25.96;33.06;97774.47;5095077;28;19967;-84
2023/07/27 02:30:39;;;;;;;;;;;;;;;26.13;32.38;97780.75;5101281;28;19977;-84
2023/07/27 02:33:05;;;;;;;;;;;;;;;25.99;32.49;97779.19;5095483;28;19938;-84
2023/07/27 02:35:31;;;;;;;;;;;;;;;25.74;33.48;97773.63;5094716;28;19972;-85
2023/07/27 02:37:57;;;;;;;;;;;;;;;25.88;32.91;97781.59;5095069;28;19916;-85
2023/07/27 02:40:23;;;;;;;;;;;;;;;25.97;32.33;97787.31;5094893;28;19916;-84
2023/07/27 02:42:49;;;;;;;;;;;;;;;25.92;32.74;97780.22;5094688;28;19916;-84
2023/07/27 02:45:15;;;;;;;;;;;;;;;25.95;32.41;97781.34;5094742;28;19916;-84
2023/07/27 02:47:41;;;;;;;;;;;;;;;25.85;32.70;97793.75;5094829;28;19920;-84
2023/07/27 02:50:07;;;;;;;;;;;;;;;25.80;32.58;97788.69;5094995;28;19916;-84
2023/07/27 02:52:33;;;;;;;;;;;;;;;26.04;32.24;97790.63;5094513;28;19928;-84
2023/07/27 02:54:59;;;;;;;;;;;;;;;26.16;31.91;97786.28;5094761;28;20007;-84
2023/07/27 02:57:26;;;;;;;;;;;;;;;26.28;31.89;97788.22;5094590;28;20317;-85
2023/07/27 02:59:52;;;;;;;;;;;;;;;26.24;31.66;97796.03;5094624;28;19916;-84
2023/07/27 03:02:18;;;;;;;;;;;;;;;26.11;32.18;97798.09;5094595;28;19923;-84
2023/07/27 03:04:44;;;;;;;;;;;;;;;26.21;31.69;97799.72;5093820;28;19916;-84
2023/07/27 03:07:11;;;;;;;;;;;;;;;26.30;31.35;97801.88;5094482;28;19924;-84
2023/07/27 03:09:37;;;;;;;;;;;;;;;26.21;31.57;97805.38;5094496;28;19983;-84
2023/07/27 03:12:03;;;;;;;;;;;;;;;26.16;31.54;97808.78;5094658;28;19939;-84
2023/07/27 03:14:29;;;;;;;;;;;;;;;25.85;32.19;97802.97;5094267;28;20064;-84
2023/07/27 03:16:55;;;;;;;;;;;;;;;25.95;32.15;97806.66;5094255;28;19997;-84
2023/07/27 03:19:21;;;;;;;;;;;;;;;26.20;31.32;97803.81;5094036;28;20391;-84
2023/07/27 03:21:48;;;;;;;;;;;;;;;26.21;31.36;97805.38;5094592;28;20003;-84
2023/07/27 03:24:16;;;;;;;;;;;;;;;26.36;31.46;97798.00;5094029;28;19997;-84
2023/07/27 03:26:43;;;;;;;;;;;;;;;26.28;31.22;97807.94;5094062;28;20024;-84
2023/07/27 03:29:09;;;;;;;;;;;;;;;26.40;31.05;97798.66;5094017;28;20023;-84
2023/07/27 03:31:35;;;;;;;;;;;;;;;26.32;31.46;97819.09;5107924;28;20385;-84
2023/07/27 03:34:01;;;;;;;;;;;;;;;26.50;31.06;97805.94;5114217;28;19919;-84
2023/07/27 03:36:27;;;;;;;;;;;;;;;26.41;31.24;97822.78;5114597;28;19923;-84
2023/07/27 03:38:53;;;;;;;;;;;;;;;26.50;31.46;97810.78;5112825;28;19919;-84
2023/07/27 03:41:19;;;;;;;;;;;;;;;26.89;30.69;97815.78;5094013;28;19916;-84
2023/07/27 03:43:45;;;;;;;;;;;;;;;27.13;30.26;97821.75;5093761;28;20296;-84
2023/07/27 03:46:11;;;;;;;;;;;;;;;27.34;30.54;97818.88;5093956;28;20021;-84
2023/07/27 03:48:37;;;;;;;;;;;;;;;27.78;30.04;97813.91;5093621;28;20384;-84
2023/07/27 03:51:03;;;;;;;;;;;;;;;27.98;29.95;97817.09;5092525;28;20335;-85
2023/07/27 03:53:30;;;;;;;;;;;;;;;28.04;29.52;97818.09;5093536;28;19931;-84
2023/07/27 03:55:56;;;;;;;;;;;;;;;28.10;29.11;97823.13;5094353;28;20015;-84
2023/07/27 03:58:22;;;;;;;;;;;;;;;27.85;29.93;97833.38;5093684;28;19927;-85
2023/07/27 04:00:48;;;;;;;;;;;;;;;27.92;30.13;97837.94;5093698;28;19923;-84
2023/07/27 04:03:14;;;;;;;;;;;;;;;28.02;29.93;97843.19;5093383;28;19916;-84
2023/07/27 04:05:40;;;;;;;;;;;;;;;28.25;30.27;97836.16;5093660;28;20030;-84
2023/07/27 04:08:06;;;;;;;;;;;;;;;28.46;30.21;97835.25;5093766;28;20018;-85
2023/07/27 04:10:32;;;;;;;;;;;;;;;28.94;31.10;97833.50;5092425;28;20017;-85
2023/07/27 04:12:59;;;;;;;;;;;;;;;29.03;30.41;97839.19;5094363;28;20270;-84
2023/07/27 04:15:25;;;;;;;;;;;;;;;29.05;30.84;97841.53;5094093;28;19912;-85
2023/07/27 04:17:51;;;;;;;;;;;;;;;29.06;31.24;97837.41;5097467;28;19916;-85
2023/07/27 04:20:17;;;;;;;;;;;;;;;28.93;30.43;97836.81;5097591;28;20441;-85
2023/07/27 04:22:43;;;;;;;;;;;;;;;28.96;31.21;97841.53;5097374;28;20374;-85
2023/07/27 04:25:09;;;;;;;;;;;;;;;29.01;31.84;97846.56;5097367;28;20377;-85
2023/07/27 04:27:35;;;;;;;;;;;;;;;29.28;31.35;97850.16;5097480;28;19923;-85
2023/07/27 04:30:01;;;;;;;;;;;;;;;29.41;30.61;97849.94;5098391;28;19924;-85
2023/07/27 04:32:27;;;;;;;;;;;;;;;29.55;31.64;97846.44;5117883;28;19916;-85
2023/07/27 04:34:53;;;;;;;;;;;;;;;29.74;30.48;97849.97;5117632;27;19961;-85
2023/07/27 04:37:20;;;;;;;;;;;;;;;29.56;30.61;97839.53;5117779;28;19919;-84
2023/07/27 04:39:46;;;;;;;;;;;;;;;29.54;30.68;97844.09;5117909;28;19922;-85
2023/07/27 04:42:12;;;;;;;;;;;;;;;29.37;31.01;97850.13;5117637;28;19923;-85
2023/07/27 04:44:38;;;;;;;;;;;;;;;29.31;31.48;97843.53;5117566;28;19916;-85
2023/07/27 04:47:04;;;;;;;;;;;;;;;29.35;31.60;97852.66;5112759;28;19924;-85
2023/07/27 04:49:31;;;;;;;;;;;;;;;29.40;31.39;97848.38;5097103;28;19931;-85
2023/07/27 04:51:57;;;;;;;;;;;;;;;29.47;32.26;97850.88;5097114;28;19924;-85
2023/07/27 04:54:23;;;;;;;;;;;;;;;29.72;33.70;97844.81;5097009;28;19920;-85
2023/07/27 04:56:49;;;;;;;;;;;;;;;30.16;33.14;97852.78;5096895;28;20006;-85
2023/07/27 04:59:15;;;;;;;;;;;;;;;30.46;32.58;97852.44;5097169;28;19979;-85
2023/07/27 05:01:41;;;;;;;;;;;;;;;30.71;33.59;97856.84;5096622;28;19920;-86
2023/07/27 05:04:07;;;;;;;;;;;;;;;30.91;32.06;97854.16;5097300;28;20368;-85
2023/07/27 05:06:34;;;;;;;;;;;;;;;30.96;31.06;97855.53;5096824;28;19920;-85
2023/07/27 05:09:00;;;;;;;;;;;;;;;30.96;31.04;97861.22;5096726;28;19924;-85
2023/07/27 05:11:27;;;;;;;;;;;;;;;31.07;29.93;97864.25;5096629;28;19916;-85
2023/07/27 05:13:53;;;;;;;;;;;;;;;30.94;30.06;97866.59;5096377;28;20381;-85
2023/07/27 05:16:19;;;;;;;;;;;;;;;31.01;30.35;97869.84;5096794;28;19923;-85
2023/07/27 05:18:46;;;;;;;;;;;;;;;31.21;32.29;97874.84;5096615;28;20033;-86
2023/07/27 05:21:12;;;;;;;;;;;;;;;31.34;32.39;97864.75;5097127;28;19926;-85
2023/07/27 05:23:38;;;;;;;;;;;;;;;31.53;32.71;97864.63;5096103;28;19924;-86
2023/07/27 05:26:05;;;;;;;;;;;;;;;31.48;31.30;97874.59;5096427;28;19916;-85
2023/07/27 05:28:31;;;;;;;;;;;;;;;31.52;32.52;97863.81;5095478;28;19959;-86
2023/07/27 05:30:57;;;;;;;;;;;;;;;31.66;31.97;97873.59;5106827;28;19916;-85
2023/07/27 05:33:24;;;;;;;;;;;;;;;31.60;31.74;97867.81;5116707;28;19916;-85
2023/07/27 05:35:50;;;;;;;;;;;;;;;31.34;31.55;97875.34;5116586;28;19911;-84
2023/07/27 05:38:17;;;;;;;;;;;;;;;31.18;32.83;97870.16;5111973;28;19920;-85
2023/07/27 05:40:43;;;;;;;;;;;;;;;31.06;31.32;97868.38;5096163;28;19912;-84
2023/07/27 05:43:09;;;;;;;;;;;;;;;30.85;33.62;97875.16;5095856;28;20262;-84
2023/07/27 05:45:36;;;;;;;;;;;;;;;31.11;33.71;97879.81;5096094;28;20445;-85
2023/07/27 05:48:02;;;;;;;;;;;;;;;31.00;32.32;97873.16;5095923;28;20300;-85
2023/07/27 05:50:28;;;;;;;;;;;;;;;30.76;33.12;97884.50;5096066;28;19979;-84
2023/07/27 05:52:54;;;;;;;;;;;;;;;30.69;32.15;97879.22;5095826;28;19924;-84
2023/07/27 05:55:20;;;;;;;;;;;;;;;30.63;31.42;97881.94;5096611;28;20293;-84
2023/07/27 05:57:46;;;;;;;;;;;;;;;30.39;32.67;97878.31;5095538;28;19916;-84
2023/07/27 06:00:12;;;;;;;;;;;;;;;30.00;31.28;97874.59;5095943;28;20376;-84
2023/07/27 06:02:38;;;;;;;;;;;;;;;29.60;30.80;97868.44;5095675;28;19951;-84
2023/07/27 06:05:05;;;;;;;;;;;;;;;29.68;32.64;97875.34;5095566;28;20007;-85
2023/07/27 06:07:31;;;;;;;;;;;;;;;29.67;31.91;97878.63;5095638;28;19982;-84
2023/07/27 06:09:57;;;;;;;;;;;;;;;29.20;30.90;97884.88;5095550;28;19923;-84
2023/07/27 06:12:24;;;;;;;;;;;;;;;28.69;32.06;97879.84;5095766;28;19916;-83
2023/07/27 06:14:51;;;;;;;;;;;;;;;28.50;31.21;97888.75;5095554;28;19923;-84
2023/07/27 06:17:17;;;;;;;;;;;;;;;28.77;36.21;97886.00;5095480;28;19916;-84
2023/07/27 06:19:43;;;;;;;;;;;;;;;29.10;31.80;97886.13;5095302;28;19916;-84
2023/07/27 06:22:09;;;;;;;;;;;;;;;29.03;31.36;97892.91;5095165;28;19931;-84
2023/07/27 06:24:35;;;;;;;;;;;;;;;28.78;34.42;97890.38;5095109;28;19916;-84
2023/07/27 06:27:01;;;;;;;;;;;;;;;28.79;31.05;97889.13;5094990;28;19973;-84
2023/07/27 06:29:27;;;;;;;;;;;;;;;28.77;34.48;97888.81;5100726;28;19912;-84
2023/07/27 06:31:54;;;;;;;;;;;;;;;29.00;32.15;97893.84;5115437;28;19960;-85
2023/07/27 06:34:20;;;;;;;;;;;;;;;28.88;31.81;97891.16;5115725;28;19916;-84
2023/07/27 06:36:46;;;;;;;;;;;;;;;28.96;31.71;97889.59;5115477;28;19919;-85
2023/07/27 06:39:12;;;;;;;;;;;;;;;28.71;33.16;97888.63;5115409;28;19920;-84
2023/07/27 06:41:38;;;;;;;;;;;;;;;28.88;31.65;97889.13;5110256;28;19930;-84
2023/07/27 06:44:04;;;;;;;;;;;;;;;28.86;31.27;97893.66;5109340;28;19920;-85
2023/07/27 06:46:31;;;;;;;;;;;;;;;28.58;30.79;97887.19;5102134;28;20373;-84
2023/07/27 06:48:57;;;;;;;;;;;;;;;28.26;30.88;97893.41;5094751;28;20391;-84
2023/07/27 06:51:24;;;;;;;;;;;;;;;28.45;32.54;97898.63;5094935;28;19917;-84
2023/07/27 06:53:50;;;;;;;;;;;;;;;29.19;31.04;97898.25;5094581;28;20274;-85
2023/07/27 06:56:17;;;;;;;;;;;;;;;28.92;32.51;97895.38;5094651;28;19970;-84
2023/07/27 06:58:43;;;;;;;;;;;;;;;29.45;30.43;97893.00;5094625;28;20431;-84
2023/07/27 07:01:10;;;;;;;;;;;;;;;29.64;30.43;97883.19;5094585;28;19916;-84
2023/07/27 07:03:36;;;;;;;;;;;;;;;29.93;30.76;97891.91;5095027;28;19920;-85
2023/07/27 07:06:02;;;;;;;;;;;;;;;29.28;32.41;97901.06;5094517;28;20438;-85
2023/07/27 07:08:29;;;;;;;;;;;;;;;29.89;29.25;97890.53;5094370;28;20369;-84
2023/07/27 07:10:55;;;;;;;;;;;;;;;29.72;31.30;97895.75;5094381;28;19916;-85
2023/07/27 07:13:21;;;;;;;;;;;;;;;29.77;30.36;97891.50;5094446;28;19920;-84
2023/07/27 07:15:49;;;;;;;;;;;;;;;29.45;29.16;97907.16;5094600;28;20342;-85
2023/07/27 07:18:15;;;;;;;;;;;;;;;28.82;36.25;97907.19;5094214;28;19923;-84
2023/07/27 07:20:41;;;;;;;;;;;;;;;29.20;30.81;97890.53;5102251;28;19939;-84
2023/07/27 07:23:07;;;;;;;;;;;;;;;29.13;32.91;97911.41;5114452;28;19924;-85
2023/07/27 07:25:33;;;;;;;;;;;;;;;29.25;32.13;97899.16;5114356;28;19920;-84
2023/07/27 07:27:59;;;;;;;;;;;;;;;29.65;30.36;97900.94;5114440;28;19922;-85
2023/07/27 07:30:25;;;;;;;;;;;;;;;29.56;30.14;97900.97;5099788;28;19916;-84
2023/07/27 07:32:52;;;;;;;;;;;;;;;29.48;31.05;97913.91;5093971;28;19920;-84
2023/07/27 07:35:18;;;;;;;;;;;;;;;29.26;33.17;97902.78;5093961;28;19924;-84
2023/07/27 07:37:44;;;;;;;;;;;;;;;29.19;32.40;97909.56;5094478;28;19916;-85
2023/07/27 07:40:10;;;;;;;;;;;;;;;29.55;29.83;97902.22;5093682;28;20006;-84
2023/07/27 07:42:36;;;;;;;;;;;;;;;29.22;30.12;97907.81;5093932;28;19938;-84
2023/07/27 07:45:03;;;;;;;;;;;;;;;29.25;30.10;97904.81;5093751;28;20003;-84
2023/07/27 07:47:29;;;;;;;;;;;;;;;29.33;30.82;97910.94;5094126;28;19916;-85
2023/07/27 07:49:55;;;;;;;;;;;;;;;29.65;28.81;97898.91;5093678;28;20009;-84
2023/07/27 07:52:21;;;;;;;;;;;;;;;29.79;29.44;97903.13;5096170;28;19930;-84
2023/07/27 07:54:47;;;;;;;;;;;;;;;29.99;30.54;97904.16;5105080;28;19916;-85
2023/07/27 07:57:13;;;;;;;;;;;;;;;30.23;31.78;97900.56;5093607;28;19922;-84
2023/07/27 07:59:39;;;;;;;;;;;;;;;29.62;29.94;97907.56;5094000;28;19920;-84
2023/07/27 08:02:05;;;;;;;;;;;;;;;29.54;28.39;97903.50;5093793;28;19969;-84
2023/07/27 08:04:31;;;;;;;;;;;;;;;29.39;30.06;97903.38;5092283;28;20385;-84
2023/07/27 08:06:57;;;;;;;;;;;;;;;29.92;30.10;97898.06;5093704;28;19921;-86
2023/07/27 08:09:24;;;;;;;;;;;;;;;29.60;34.74;97898.75;5093362;28;19924;-84
2023/07/27 08:11:52;;;;;;;;;;;;;;;29.84;31.22;97902.50;5094132;28;19916;-85
2023/07/27 08:14:18;;;;;;;;;;;;;;;30.40;29.91;97905.41;5093967;28;20308;-85
2023/07/27 08:16:44;;;;;;;;;;;;;;;30.76;29.44;97905.13;5093614;28;19917;-85
2023/07/27 08:19:10;;;;;;;;;;;;;;;30.13;28.51;97905.50;5093511;28;19916;-84
2023/07/27 08:21:36;;;;;;;;;;;;;;;30.39;28.41;97911.53;5093477;28;19931;-85
2023/07/27 08:24:02;;;;;;;;;;;;;;;30.72;29.23;97901.69;5093426;28;19920;-85
2023/07/27 08:26:29;;;;;;;;;;;;;;;31.06;25.55;97894.69;5093601;28;19970;-85
2023/07/27 08:28:55;;;;;;;;;;;;;;;31.02;27.36;97904.63;5093947;28;19916;-85
2023/07/27 08:31:21;;;;;;;;;;;;;;;30.95;27.51;97902.19;5092210;28;19920;-84
2023/07/27 08:33:47;;;;;;;;;;;;;;;30.84;30.29;97905.56;5093552;28;19920;-84
2023/07/27 08:36:14;;;;;;;;;;;;;;;30.87;26.82;97907.44;5093431;28;19955;-84
2023/07/27 08:38:40;;;;;;;;;;;;;;;30.14;31.41;97903.44;5093170;28;19955;-85
2023/07/27 08:41:06;;;;;;;;;;;;;;;30.73;30.08;97896.81;5093372;28;19916;-84
2023/07/27 08:43:32;;;;;;;;;;;;;;;30.82;29.73;97898.78;5093201;28;19946;-85
2023/07/27 08:45:58;;;;;;;;;;;;;;;30.72;27.92;97898.88;5103451;28;19919;-84
2023/07/27 08:48:25;;;;;;;;;;;;;;;30.36;25.96;97907.63;5112401;28;19916;-84
2023/07/27 08:50:51;;;;;;;;;;;;;;;30.70;26.70;97898.56;5113692;28;19919;-84
2023/07/27 08:53:18;;;;;;;;;;;;;;;30.53;29.54;97896.63;5113148;28;19924;-85
2023/07/27 08:55:45;;;;;;;;;;;;;;;30.85;28.30;97897.84;5113539;28;19916;-84
2023/07/27 08:58:11;;;;;;;;;;;;;;;31.15;27.99;97888.16;5113616;28;20320;-84
2023/07/27 09:00:38;;;;;;;;;;;;;;;31.52;27.29;97889.38;5113552;28;19916;-84
2023/07/27 09:03:04;;;;;;;;;;;;;;;31.17;32.85;97892.06;5103517;28;19916;-84
2023/07/27 09:05:40;;;;;;;;;;;;;;;30.64;28.75;97882.72;5097102;28;19947;-84
2023/07/27 09:08:08;;;;;;;;;;;;;;;29.68;32.05;97897.19;5096546;28;19916;-84
2023/07/27 09:10:35;;;;;;;;;;;;;;;30.76;28.19;97876.78;5096610;28;20444;-84
2023/07/27 09:13:01;;;;;;;;;;;;;;;31.20;27.00;97885.38;5096970;28;19916;-84
2023/07/27 09:15:27;;;;;;;;;;;;;;;31.78;28.45;97878.97;5096833;28;20003;-85
2023/07/27 09:17:53;;;;;;;;;;;;;;;32.04;27.49;97873.47;5096477;28;20011;-85
2023/07/27 09:20:19;;;;;;;;;;;;;;;31.95;23.83;97879.25;5097012;28;20343;-86
2023/07/27 09:22:48;;;;;;;;;;;;;;;31.48;24.44;97876.66;5096174;28;19924;-84
2023/07/27 09:25:15;;;;;;;;;;;;;;;31.04;29.51;97876.59;5096370;28;20353;-84
2023/07/27 09:27:45;;;;;;;;;;;;;;;31.49;25.73;97881.81;5096375;28;20412;-84
2023/07/27 09:30:12;;;;;;;;;;;;;;;30.20;34.28;97885.31;5096328;28;19920;-84
2023/07/27 09:32:38;;;;;;;;;;;;;;;30.28;37.82;97880.09;5096301;28;19923;-84
2023/07/27 09:35:05;;;;;;;;;;;;;;;30.63;31.15;97879.09;5096067;28;20257;-83
2023/07/27 09:37:31;;;;;;;;;;;;;;;31.39;27.50;97881.09;5096780;28;20392;-84
2023/07/27 09:40:10;;;;;;;;;;;;;;;31.28;24.44;97882.97;5094840;28;19916;-85
2023/07/27 09:42:36;;;;;;;;;;;;;;;31.84;26.03;97879.03;5096270;28;19917;-84
2023/07/27 09:45:03;;;;;;;;;;;;;;;32.03;23.57;97884.03;5095947;28;20280;-84
2023/07/27 09:47:31;;;;;;;;;;;;;;;31.86;27.37;97882.16;5096090;28;19916;-83
2023/07/27 09:49:57;;;;;;;;;;;;;;;31.80;26.54;97873.59;5095803;28;19912;-84
2023/07/27 09:52:24;;;;;;;;;;;;;;;32.32;23.72;97871.03;5095877;28;19924;-83
2023/07/27 09:54:51;;;;;;;;;;;;;;;32.27;26.26;97868.88;5096439;28;19923;-84
2023/07/27 09:57:17;;;;;;;;;;;;;;;31.76;30.40;97863.72;5103462;28;19955;-83
2023/07/27 09:59:43;;;;;;;;;;;;;;;31.06;33.29;97872.00;5116214;28;20388;-83
2023/07/27 10:02:09;;;;;;;;;;;;;;;31.72;26.42;97868.78;5116068;28;19916;-83
2023/07/27 10:04:36;;;;;;;;;;;;;;;32.28;27.97;97874.06;5114647;28;19981;-84
2023/07/27 10:07:02;;;;;;;;;;;;;;;31.28;32.70;97868.78;5116021;28;19919;-84
2023/07/27 10:09:28;;;;;;;;;;;;;;;31.43;25.38;97869.59;5115907;28;19915;-84
2023/07/27 10:11:59;;;;;;;;;;;;;;;31.69;27.95;97867.72;5097469;28;19962;-84
2023/07/27 10:14:26;;;;;;;;;;;;;;;32.01;25.88;97863.09;5095127;28;19920;-84
2023/07/27 10:17:02;;;;;;;;;;;;;;;31.82;25.62;97861.72;5095567;28;19926;-83
2023/07/27 10:19:39;;;;;;;;;;;;;;;31.58;28.76;97853.34;5095472;28;19927;-84
2023/07/27 10:22:06;;;;;;;;;;;;;;;32.37;26.45;97844.75;5095421;28;19924;-83
2023/07/27 10:24:45;;;;;;;;;;;;;;;31.66;31.69;97843.16;5095165;28;20361;-84
2023/07/27 10:27:11;;;;;;;;;;;;;;;32.14;26.88;97852.16;5095865;28;19924;-83
2023/07/27 10:29:37;;;;;;;;;;;;;;;31.02;25.00;97864.94;5095014;28;20005;-84
2023/07/27 10:32:06;;;;;;;;;;;;;;;31.70;26.83;97855.09;5095160;28;19916;-83
2023/07/27 10:34:33;;;;;;;;;;;;;;;32.32;24.74;97851.13;5094815;28;20296;-84
2023/07/27 10:37:00;;;;;;;;;;;;;;;33.06;26.07;97853.13;5094948;28;19916;-84
2023/07/27 10:39:30;;;;;;;;;;;;;;;33.16;29.42;97848.06;5094986;28;20373;-84
2023/07/27 10:41:58;;;;;;;;;;;;;;;33.00;24.93;97849.41;5094895;28;19916;-84
2023/07/27 10:44:25;;;;;;;;;;;;;;;32.71;28.36;97847.53;5095370;28;20331;-83
2023/07/27 10:46:53;;;;;;;;;;;;;;;31.85;24.64;97850.19;5094745;28;20357;-84
2023/07/27 10:49:19;;;;;;;;;;;;;;;31.90;26.51;97840.19;5094646;28;19939;-84
2023/07/27 10:51:46;;;;;;;;;;;;;;;31.70;34.01;97843.72;5094752;28;20357;-84
2023/07/27 10:54:13;;;;;;;;;;;;;;;32.81;26.86;97836.78;5094625;28;20019;-84
2023/07/27 10:56:40;;;;;;;;;;;;;;;33.32;25.67;97830.38;5095690;28;19920;-84
2023/07/27 10:59:10;;;;;;;;;;;;;;;33.09;25.83;97832.22;5094681;28;20007;-83
2023/07/27 11:01:36;;;;;;;;;;;;;;;33.31;27.09;97829.56;5101472;28;20312;-84
2023/07/27 11:04:02;;;;;;;;;;;;;;;32.79;29.67;97827.19;5114835;28;20022;-83
2023/07/27 11:06:29;;;;;;;;;;;;;;;31.89;26.44;97827.25;5114935;28;19969;-85
2023/07/27 11:08:56;;;;;;;;;;;;;;;32.89;24.36;97829.38;5113502;28;19924;-84
2023/07/27 11:11:24;;;;;;;;;;;;;;;32.76;26.09;97828.97;5113496;28;19920;-84
2023/07/27 11:13:50;;;;;;;;;;;;;;;32.67;25.41;97820.59;5115019;28;19947;-84
2023/07/27 11:16:17;;;;;;;;;;;;;;;33.29;26.59;97826.47;5104191;28;20383;-84
2023/07/27 11:18:44;;;;;;;;;;;;;;;32.91;26.01;97817.50;5094596;28;20014;-84
2023/07/27 11:21:10;;;;;;;;;;;;;;;33.07;25.79;97817.69;5094204;28;19920;-85
2023/07/27 11:23:44;;;;;;;;;;;;;;;33.73;23.98;97811.84;5094568;28;20020;-84
2023/07/27 11:26:11;;;;;;;;;;;;;;;33.91;24.06;97808.59;5093552;28;20381;-85
2023/07/27 11:28:37;;;;;;;;;;;;;;;34.30;21.90;97796.66;5110259;28;19912;-84
2023/07/27 11:31:06;;;;;;;;;;;;;;;34.13;26.90;97799.44;5114254;28;19950;-84
2023/07/27 11:33:36;;;;;;;;;;;;;;;34.36;24.47;97800.31;5114321;28;19987;-84
2023/07/27 11:36:04;;;;;;;;;;;;;;;34.71;23.76;97789.31;5103328;28;20310;-85
2023/07/27 11:38:31;;;;;;;;;;;;;;;34.83;27.31;97793.00;5094044;28;20434;-84
2023/07/27 11:40:57;;;;;;;;;;;;;;;34.06;24.39;97789.28;5093921;28;19916;-84
2023/07/27 11:43:24;;;;;;;;;;;;;;;34.58;26.53;97783.34;5093859;28;19916;-86
2023/07/27 11:46:00;;;;;;;;;;;;;;;35.04;23.42;97771.53;5093613;28;20006;-84
2023/07/27 11:48:27;;;;;;;;;;;;;;;35.13;26.84;97782.69;5093837;28;19923;-84
2023/07/27 11:50:54;;;;;;;;;;;;;;;34.71;25.17;97778.69;5100545;28;19930;-84
2023/07/27 11:53:21;;;;;;;;;;;;;;;34.97;24.61;97781.34;5105694;28;20643;-84
2023/07/27 11:55:49;;;;;;;;;;;;;;;34.94;25.67;97773.06;5113560;28;20203;-84
2023/07/27 11:58:15;;;;;;;;;;;;;;;34.94;23.85;97775.91;5112998;28;19995;-84
2023/07/27 12:00:49;;;;;;;;;;;;;;;35.24;24.54;97785.59;5114149;28;20289;-86
2023/07/27 12:03:16;;;;;;;;;;;;;;;35.54;24.84;97780.16;5112861;28;19951;-85
2023/07/27 12:05:42;;;;;;;;;;;;;;;35.17;22.08;97777.53;5112386;28;19920;-84
2023/07/27 12:08:08;;;;;;;;;;;;;;;34.95;25.26;97769.69;5106890;28;19955;-85
2023/07/27 12:10:34;;;;;;;;;;;;;;;34.74;25.44;97771.97;5108835;28;19920;-85
2023/07/27 12:13:01;;;;;;;;;;;;;;;34.69;30.51;97777.66;5114076;28;19923;-84
2023/07/27 12:15:28;;;;;;;;;;;;;;;34.75;28.06;97764.97;5099519;28;19991;-85
2023/07/27 12:17:56;;;;;;;;;;;;;;;34.85;23.15;97759.00;5093585;28;19920;-84
2023/07/27 12:20:25;;;;;;;;;;;;;;;34.32;26.71;97771.28;5093545;28;20007;-83
2023/07/27 12:22:52;;;;;;;;;;;;;;;34.85;28.69;97764.72;5092346;28;19966;-84
2023/07/27 12:25:18;;;;;;;;;;;;;;;35.53;24.07;97755.72;5093421;28;19943;-84
2023/07/27 12:27:44;;;;;;;;;;;;;;;35.70;25.67;97754.44;5102393;28;20380;-84
2023/07/27 12:30:10;;;;;;;;;;;;;;;35.66;24.81;97756.00;5113865;28;19922;-85
2023/07/27 12:32:37;;;;;;;;;;;;;;;35.34;27.21;97756.25;5113724;28;19915;-85
2023/07/27 12:35:03;;;;;;;;;;;;;;;34.87;26.44;97747.88;5113740;28;19938;-83
2023/07/27 12:37:30;;;;;;;;;;;;;;;34.85;24.45;97744.75;5115780;28;19969;-85
2023/07/27 12:39:56;;;;;;;;;;;;;;;35.26;27.74;97745.88;5117817;28;20372;-85
2023/07/27 12:42:22;;;;;;;;;;;;;;;35.26;25.47;97737.31;5117668;28;19923;-84
2023/07/27 12:44:48;;;;;;;;;;;;;;;35.38;25.91;97736.75;5100037;28;19916;-84
2023/07/27 12:47:15;;;;;;;;;;;;;;;35.63;28.54;97729.25;5097272;28;20266;-84